createdAt,value
2023-03-10T00:02:06.828Z,20.17
2023-03-10T00:04:33.235Z,7.47
2023-03-10T00:06:59.668Z,6.65
2023-03-10T00:09:26.090Z,6.13
2023-03-10T00:11:52.445Z,7.03
2023-03-10T00:14:18.971Z,12.75
2023-03-10T00:16:45.285Z,6.97
2023-03-10T00:19:11.600Z,11.15
2023-03-10T00:21:37.920Z,13.25
2023-03-10T00:24:04.337Z,18.35
2023-03-10T00:26:30.851Z,24.35
2023-03-10T00:28:57.582Z,21.92
2023-03-10T00:31:25.155Z,11.05
2023-03-10T00:33:52.307Z,20.38
2023-03-10T00:36:22.668Z,23.63
2023-03-10T00:38:49.519Z,59.85
2023-03-10T00:41:17.160Z,25.08
2023-03-10T00:43:43.757Z,19.90
2023-03-10T00:46:10.570Z,14.85
2023-03-10T00:48:37.142Z,13.48
2023-03-10T00:51:04.313Z,44.83
2023-03-10T00:53:31.132Z,17.23
2023-03-10T00:55:58.719Z,23.20
2023-03-10T00:58:25.262Z,15.48
2023-03-10T01:00:51.746Z,16.80
2023-03-10T01:03:18.123Z,12.52
2023-03-10T01:05:45.226Z,18.60
2023-03-10T01:08:11.570Z,17.93
2023-03-10T01:10:37.973Z,26.40
2023-03-10T01:13:04.382Z,17.60
2023-03-10T01:15:30.730Z,18.02
2023-03-10T01:17:57.119Z,16.92
2023-03-10T01:20:23.477Z,15.93
2023-03-10T01:22:49.844Z,14.15
2023-03-10T01:25:16.283Z,15.20
2023-03-10T01:27:43.290Z,14.70
2023-03-10T01:30:10.134Z,12.07
2023-03-10T01:32:37.373Z,14.70
2023-03-10T01:35:04.591Z,9.52
2023-03-10T01:37:31.396Z,9.60
2023-03-10T01:39:57.744Z,10.88
2023-03-10T01:42:24.479Z,9.95
2023-03-10T01:45:09.629Z,10.32
2023-03-10T01:47:35.984Z,10.25
2023-03-10T01:50:04.046Z,10.15
2023-03-10T01:52:31.554Z,11.00
2023-03-10T01:55:04.566Z,11.13
2023-03-10T01:57:33.210Z,10.93
2023-03-10T02:00:00.172Z,11.95
2023-03-10T02:02:26.985Z,10.98
2023-03-10T02:04:54.067Z,10.52
2023-03-10T02:07:22.838Z,8.87
2023-03-10T02:09:49.766Z,9.63
2023-03-10T02:12:16.808Z,8.65
2023-03-10T02:14:44.334Z,8.57
2023-03-10T02:17:13.868Z,9.07
2023-03-10T02:19:58.924Z,11.02
2023-03-10T02:22:25.263Z,10.65
2023-03-10T02:24:58.122Z,7.00
2023-03-10T02:27:26.010Z,7.60
2023-03-10T02:29:59.825Z,5.22
2023-03-10T02:32:28.090Z,5.88
2023-03-10T02:34:54.593Z,5.97
2023-03-10T02:37:23.116Z,6.80
2023-03-10T02:39:49.489Z,5.28
2023-03-10T02:42:15.986Z,6.20
2023-03-10T02:44:43.016Z,7.00
2023-03-10T02:47:09.880Z,6.80
2023-03-10T02:49:36.553Z,6.15
2023-03-10T02:52:05.091Z,6.72
2023-03-10T02:54:31.438Z,7.93
2023-03-10T02:56:57.761Z,8.02
2023-03-10T02:59:24.093Z,8.63
2023-03-10T03:01:50.415Z,6.57
2023-03-10T03:04:16.799Z,6.38
2023-03-10T03:06:43.158Z,7.25
2023-03-10T03:09:09.611Z,7.13
2023-03-10T03:11:36.026Z,7.05
2023-03-10T03:14:02.363Z,6.97
2023-03-10T03:16:28.751Z,8.07
2023-03-10T03:18:55.110Z,7.38
2023-03-10T03:21:21.522Z,6.57
2023-03-10T03:23:48.290Z,6.07
2023-03-10T03:26:15.955Z,8.48
2023-03-10T03:28:42.747Z,6.38
2023-03-10T03:31:13.284Z,5.80
2023-03-10T03:33:39.647Z,5.63
2023-03-10T03:36:06.225Z,6.40
2023-03-10T03:38:32.777Z,6.30
2023-03-10T03:40:59.090Z,6.22
2023-03-10T03:43:27.545Z,6.68
2023-03-10T03:45:53.937Z,6.78
2023-03-10T03:48:22.414Z,6.32
2023-03-10T03:50:49.116Z,5.20
2023-03-10T03:53:15.484Z,5.85
2023-03-10T03:55:41.801Z,5.13
2023-03-10T03:58:08.213Z,4.50
2023-03-10T04:00:35.588Z,3.92
2023-03-10T04:03:02.331Z,4.93
2023-03-10T04:05:28.655Z,4.32
2023-03-10T04:07:55.012Z,4.65
2023-03-10T04:10:23.620Z,4.03
2023-03-10T04:12:49.953Z,4.18
2023-03-10T04:15:16.338Z,3.95
2023-03-10T04:17:42.668Z,4.35
2023-03-10T04:20:09.958Z,4.28
2023-03-10T04:22:36.715Z,4.70
2023-03-10T04:25:03.328Z,4.13
2023-03-10T04:27:30.133Z,3.47
2023-03-10T04:29:57.026Z,3.97
2023-03-10T04:32:23.582Z,3.95
2023-03-10T04:34:49.957Z,3.95
2023-03-10T04:37:16.542Z,5.18
2023-03-10T04:39:42.852Z,4.18
2023-03-10T04:42:09.509Z,4.45
2023-03-10T04:44:35.837Z,3.42
2023-03-10T04:47:02.346Z,4.65
2023-03-10T04:49:29.568Z,4.00
2023-03-10T04:51:55.917Z,4.45
2023-03-10T04:54:22.233Z,4.20
2023-03-10T04:56:48.628Z,3.83
2023-03-10T04:59:15.068Z,4.00
2023-03-10T05:01:41.440Z,4.20
2023-03-10T05:04:07.880Z,4.30
2023-03-10T05:06:34.262Z,3.50
2023-03-10T05:09:03.452Z,3.25
2023-03-10T05:11:29.820Z,3.72
2023-03-10T05:13:56.208Z,2.85
2023-03-10T05:16:22.940Z,3.78
2023-03-10T05:18:49.596Z,4.15
2023-03-10T05:21:16.349Z,4.07
2023-03-10T05:23:42.796Z,4.68
2023-03-10T05:26:10.194Z,4.85
2023-03-10T05:28:36.858Z,4.82
2023-03-10T05:31:08.458Z,5.00
2023-03-10T05:33:34.850Z,5.45
2023-03-10T05:36:03.657Z,5.43
2023-03-10T05:38:29.988Z,4.60
2023-03-10T05:40:56.564Z,5.10
2023-03-10T05:43:22.889Z,4.78
2023-03-10T05:45:58.980Z,4.65
2023-03-10T05:48:25.984Z,4.85
2023-03-10T05:51:02.767Z,4.32
2023-03-10T05:53:29.708Z,4.82
2023-03-10T05:55:56.647Z,4.07
2023-03-10T05:58:23.942Z,3.78
2023-03-10T06:00:50.393Z,3.00
2023-03-10T06:03:17.197Z,2.67
2023-03-10T06:05:43.644Z,2.72
2023-03-10T06:08:10.171Z,2.63
2023-03-10T06:10:36.529Z,3.33
2023-03-10T06:13:02.840Z,3.55
2023-03-10T06:15:29.671Z,2.88
2023-03-10T06:17:56.067Z,3.40
2023-03-10T06:20:22.388Z,3.47
2023-03-10T06:22:50.303Z,3.22
2023-03-10T06:25:16.693Z,2.95
2023-03-10T06:27:43.047Z,2.90
2023-03-10T06:30:09.875Z,2.70
2023-03-10T06:32:36.456Z,2.00
2023-03-10T06:35:02.855Z,1.92
2023-03-10T06:37:29.200Z,1.98
2023-03-10T06:39:55.518Z,1.58
2023-03-10T06:42:21.839Z,1.50
2023-03-10T06:44:49.328Z,1.48
2023-03-10T06:47:15.711Z,2.17
2023-03-10T06:49:42.133Z,1.25
2023-03-10T06:52:08.468Z,1.70
2023-03-10T06:54:34.795Z,1.17
2023-03-10T06:57:01.195Z,0.80
2023-03-10T06:59:27.516Z,1.20
2023-03-10T07:01:53.828Z,1.02
2023-03-10T07:04:20.262Z,0.95
2023-03-10T07:06:46.638Z,0.68
2023-03-10T07:09:12.968Z,0.70
2023-03-10T07:11:39.273Z,0.50
2023-03-10T07:14:05.709Z,0.40
2023-03-10T07:16:32.104Z,0.60
2023-03-10T07:18:58.490Z,0.57
2023-03-10T07:21:24.920Z,0.60
2023-03-10T07:23:51.573Z,0.60
2023-03-10T07:26:18.867Z,0.70
2023-03-10T07:28:45.442Z,0.77
2023-03-10T07:31:13.152Z,1.13
2023-03-10T07:33:39.540Z,0.82
2023-03-10T07:36:07.614Z,0.60
2023-03-10T07:38:34.388Z,1.33
2023-03-10T07:41:02.048Z,0.70
2023-03-10T07:43:28.539Z,0.80
2023-03-10T07:45:55.154Z,1.27
2023-03-10T07:48:21.529Z,2.75
2023-03-10T07:50:54.953Z,7.35
2023-03-10T07:53:21.271Z,12.02
2023-03-10T07:55:47.581Z,10.25
2023-03-10T07:58:13.984Z,12.07
2023-03-10T08:00:40.544Z,10.35
2023-03-10T08:03:06.906Z,8.70
2023-03-10T08:05:33.314Z,15.00
2023-03-10T08:07:59.635Z,8.85
2023-03-10T08:10:25.948Z,5.32
2023-03-10T08:12:53.917Z,5.25
2023-03-10T08:17:46.470Z,5.50
2023-03-10T08:20:13.002Z,5.03
2023-03-10T08:22:39.335Z,4.60
2023-03-10T08:25:06.400Z,5.03
2023-03-10T08:27:32.791Z,4.40
2023-03-10T08:29:59.111Z,2.03
2023-03-10T08:32:25.537Z,1.92
2023-03-10T08:34:51.989Z,6.80
2023-03-10T08:37:18.751Z,1.50
2023-03-10T08:39:46.358Z,1.40
2023-03-10T08:42:13.273Z,1.38
2023-03-10T08:44:40.073Z,2.70
2023-03-10T08:47:07.495Z,1.30
2023-03-10T08:49:33.973Z,5.03
2023-03-10T08:52:00.453Z,4.18
2023-03-10T08:54:26.971Z,3.30
2023-03-10T08:56:53.378Z,2.30
2023-03-10T08:59:20.123Z,2.00
2023-03-10T09:01:46.599Z,1.23
2023-03-10T09:04:13.181Z,1.63
2023-03-10T09:06:39.632Z,1.50
2023-03-10T09:09:06.886Z,1.48
2023-03-10T09:11:36.977Z,1.70
2023-03-10T09:14:05.072Z,0.88
2023-03-10T09:16:31.745Z,1.50
2023-03-10T09:18:59.105Z,3.42
2023-03-10T09:21:26.237Z,2.55
2023-03-10T09:23:53.173Z,1.73
2023-03-10T09:26:20.314Z,1.90
2023-03-10T09:28:49.548Z,2.93
2023-03-10T09:31:20.610Z,1.30
2023-03-10T09:33:48.280Z,1.45
2023-03-10T09:38:42.087Z,1.20
2023-03-10T09:41:26.907Z,2.70
2023-03-10T09:44:02.279Z,0.90
2023-03-10T09:46:55.163Z,1.10
2023-03-10T09:49:30.557Z,1.38
2023-03-10T09:51:57.194Z,0.57
2023-03-10T09:54:42.194Z,0.90
2023-03-10T09:57:15.412Z,0.60
2023-03-10T09:59:43.228Z,1.02
2023-03-10T10:02:16.292Z,1.17
2023-03-10T10:04:43.231Z,0.57
2023-03-10T10:07:19.491Z,0.63
2023-03-10T10:09:53.299Z,0.73
2023-03-10T10:12:23.576Z,0.85
2023-03-10T10:14:57.920Z,1.15
2023-03-10T10:17:55.105Z,0.73
2023-03-10T10:20:33.381Z,0.95
2023-03-10T10:22:59.706Z,1.20
2023-03-10T10:25:30.446Z,1.08
2023-03-10T10:27:58.452Z,1.00
2023-03-10T10:33:00.214Z,1.13
2023-03-10T10:35:28.122Z,0.90
2023-03-10T10:38:02.105Z,0.90
2023-03-10T10:40:29.731Z,0.90
2023-03-10T10:42:57.023Z,0.90
2023-03-10T10:45:25.438Z,1.52
2023-03-10T10:47:52.077Z,1.10
2023-03-10T10:50:20.526Z,0.82
2023-03-10T10:52:49.860Z,1.70
2023-03-10T10:55:27.499Z,6.35
2023-03-10T10:57:55.258Z,2.88
2023-03-10T11:00:27.087Z,2.47
2023-03-10T11:02:54.068Z,1.88
2023-03-10T11:05:24.701Z,1.52
2023-03-10T11:07:52.275Z,0.80
2023-03-10T11:10:20.087Z,0.77
2023-03-10T11:15:17.445Z,0.85
2023-03-10T11:17:47.394Z,1.67
2023-03-10T11:20:24.945Z,1.70
2023-03-10T11:23:06.255Z,1.05
2023-03-10T11:25:38.582Z,0.75
2023-03-10T11:28:13.807Z,1.63
2023-03-10T11:30:43.617Z,3.17
2023-03-10T11:33:14.691Z,1.90
2023-03-10T11:35:45.566Z,1.98
2023-03-10T11:38:22.748Z,1.40
2023-03-10T11:40:57.481Z,2.47
2023-03-10T11:43:40.077Z,2.38
2023-03-10T11:46:25.215Z,2.60
2023-03-10T11:48:57.649Z,5.20
2023-03-10T11:51:28.230Z,3.38
2023-03-10T11:53:56.620Z,2.40
2023-03-10T11:56:23.860Z,1.17
2023-03-10T11:58:50.382Z,2.92
2023-03-10T12:01:45.916Z,0.80
2023-03-10T12:04:17.697Z,1.10
2023-03-10T12:06:44.663Z,0.82
2023-03-10T12:09:20.557Z,0.80
2023-03-10T12:11:47.903Z,0.80
2023-03-10T12:14:14.830Z,0.80
2023-03-10T12:16:42.031Z,0.90
2023-03-10T12:19:08.402Z,0.63
2023-03-10T12:21:34.817Z,1.08
2023-03-10T12:24:02.163Z,0.80
2023-03-10T12:26:37.287Z,1.00
2023-03-10T12:29:15.832Z,0.90
2023-03-10T12:31:42.208Z,0.60
2023-03-10T12:34:13.520Z,1.00
2023-03-10T12:36:41.170Z,1.48
2023-03-10T12:39:31.608Z,2.13
2023-03-10T12:41:59.052Z,0.52
2023-03-10T12:44:44.263Z,0.52
2023-03-10T12:47:15.743Z,1.40
2023-03-10T12:49:42.082Z,2.38
2023-03-10T12:52:14.580Z,2.72
2023-03-10T12:54:59.656Z,2.50
2023-03-10T12:57:45.043Z,3.15
2023-03-10T13:00:24.201Z,2.95
2023-03-10T13:02:54.147Z,2.83
2023-03-10T13:05:27.736Z,4.63
2023-03-10T13:07:57.017Z,0.90
2023-03-10T13:10:24.205Z,4.03
2023-03-10T13:12:53.125Z,1.30
2023-03-10T13:15:30.211Z,2.90
2023-03-10T13:18:17.062Z,2.58
2023-03-10T13:20:43.475Z,0.68
2023-03-10T13:23:18.046Z,1.00
2023-03-10T13:25:56.414Z,3.05
2023-03-10T13:28:27.832Z,6.88
2023-03-10T13:31:29.735Z,2.67
2023-03-10T13:33:56.710Z,0.88
2023-03-10T13:36:32.202Z,1.00
2023-03-10T13:38:59.423Z,0.73
2023-03-10T13:41:26.055Z,0.77
2023-03-10T13:43:53.496Z,1.30
2023-03-10T13:46:22.865Z,0.95
2023-03-10T13:48:49.617Z,0.57
2023-03-10T13:53:42.538Z,0.80
2023-03-10T13:56:14.353Z,0.82
2023-03-10T13:58:40.733Z,1.25
2023-03-10T14:01:07.177Z,4.82
2023-03-10T14:03:35.270Z,4.22
2023-03-10T14:06:11.831Z,1.20
2023-03-10T14:08:38.166Z,1.20
2023-03-10T14:11:22.825Z,1.50
2023-03-10T14:13:49.291Z,2.50
2023-03-10T14:16:15.730Z,1.25
2023-03-10T14:18:42.611Z,2.03
2023-03-10T14:21:27.723Z,1.77
2023-03-10T14:23:56.896Z,1.20
2023-03-10T14:26:23.522Z,2.35
2023-03-10T14:28:49.852Z,1.33
2023-03-10T14:31:23.687Z,3.53
2023-03-10T14:33:50.631Z,1.35
2023-03-10T14:36:17.120Z,1.65
2023-03-10T14:38:46.259Z,1.43
2023-03-10T14:41:13.636Z,1.77
2023-03-10T14:43:41.136Z,2.75
2023-03-10T14:46:08.056Z,3.97
2023-03-10T14:48:35.751Z,6.45
2023-03-10T14:51:02.236Z,15.15
2023-03-10T14:53:28.691Z,22.50
2023-03-10T14:55:55.724Z,8.82
2023-03-10T14:58:23.242Z,23.00
2023-03-10T15:03:16.304Z,5.50
2023-03-10T15:05:48.639Z,5.85
2023-03-10T15:08:15.748Z,10.40
2023-03-10T15:10:43.025Z,10.70
2023-03-10T15:13:13.640Z,16.10
2023-03-10T15:15:41.059Z,14.05
2023-03-10T15:18:07.610Z,7.50
2023-03-10T15:20:33.930Z,5.03
2023-03-10T15:23:00.253Z,18.70
2023-03-10T15:25:26.689Z,13.68
2023-03-10T15:27:53.087Z,7.53
2023-03-10T15:30:29.916Z,9.48
2023-03-10T15:32:56.679Z,3.22
2023-03-10T15:35:23.569Z,1.90
2023-03-10T15:37:50.686Z,1.10
2023-03-10T15:40:21.302Z,2.20
2023-03-10T15:42:48.087Z,3.83
2023-03-10T15:45:14.927Z,4.15
2023-03-10T15:47:41.771Z,3.78
2023-03-10T15:50:08.511Z,3.78
2023-03-10T15:52:34.848Z,5.63
2023-03-10T15:55:01.236Z,4.47
2023-03-10T15:57:27.685Z,2.42
2023-03-10T15:59:54.844Z,2.25
2023-03-10T16:02:21.160Z,11.00
2023-03-10T16:04:48.923Z,4.47
2023-03-10T16:09:41.562Z,2.65
2023-03-10T16:12:07.972Z,5.43
2023-03-10T16:14:34.329Z,3.53
2023-03-10T16:17:00.722Z,5.28
2023-03-10T16:19:27.789Z,3.03
2023-03-10T16:21:54.242Z,4.00
2023-03-10T16:24:21.169Z,7.18
2023-03-10T16:26:47.508Z,4.68
2023-03-10T16:29:13.970Z,2.20
2023-03-10T16:31:40.343Z,2.45
2023-03-10T16:34:07.016Z,2.05
2023-03-10T16:36:36.347Z,3.55
2023-03-10T16:39:11.355Z,2.25
2023-03-10T16:41:38.076Z,1.90
2023-03-10T16:44:05.505Z,1.77
2023-03-10T16:46:32.078Z,3.33
2023-03-10T16:48:59.274Z,1.50
2023-03-10T16:51:25.720Z,3.20
2023-03-10T16:53:52.907Z,2.05
2023-03-10T16:56:19.966Z,2.50
2023-03-10T16:58:46.375Z,1.60
2023-03-10T17:01:12.931Z,1.33
2023-03-10T17:03:39.993Z,1.92
2023-03-10T17:06:11.778Z,1.90
2023-03-10T17:08:38.850Z,3.28
2023-03-10T17:11:05.800Z,1.73
2023-03-10T17:13:32.778Z,2.50
2023-03-10T17:15:59.813Z,2.97
2023-03-10T17:18:26.290Z,2.20
2023-03-10T17:20:52.667Z,1.85
2023-03-10T17:23:19.155Z,1.70
2023-03-10T17:25:45.730Z,2.13
2023-03-10T17:28:12.164Z,2.72
2023-03-10T17:30:39.868Z,1.67
2023-03-10T17:33:06.265Z,3.17
2023-03-10T17:35:36.713Z,1.85
2023-03-10T17:38:03.178Z,1.60
2023-03-10T17:40:29.561Z,3.08
2023-03-10T17:42:56.657Z,2.72
2023-03-10T17:45:24.220Z,3.90
2023-03-10T17:47:50.608Z,3.00
2023-03-10T17:50:17.109Z,2.78
2023-03-10T17:52:43.446Z,3.42
2023-03-10T17:55:09.882Z,3.10
2023-03-10T17:57:36.205Z,3.53
2023-03-10T18:00:02.694Z,3.30
2023-03-10T18:02:29.147Z,5.22
2023-03-10T18:04:55.657Z,6.90
2023-03-10T18:07:22.007Z,7.05
2023-03-10T18:09:48.364Z,6.72
2023-03-10T18:12:14.684Z,7.85
2023-03-10T18:14:40.997Z,8.23
2023-03-10T18:17:07.351Z,7.22
2023-03-10T18:19:33.731Z,5.47
2023-03-10T18:22:00.164Z,13.70
2023-03-10T18:24:26.576Z,12.45
2023-03-10T18:26:52.875Z,7.60
2023-03-10T18:29:19.176Z,6.55
2023-03-10T18:31:45.510Z,11.60
2023-03-10T18:34:12.903Z,10.20
2023-03-10T18:36:39.394Z,11.27
2023-03-10T18:39:07.735Z,11.88
2023-03-10T18:41:34.254Z,7.47
2023-03-10T18:44:01.289Z,8.80
2023-03-10T18:46:27.730Z,12.15
2023-03-10T18:48:55.940Z,8.73
2023-03-10T18:51:26.133Z,9.45
2023-03-10T18:53:52.835Z,10.43
2023-03-10T18:56:19.215Z,11.57
2023-03-10T18:58:45.635Z,9.40
2023-03-10T19:01:12.851Z,14.02
2023-03-10T19:03:39.999Z,13.07
2023-03-10T19:06:06.968Z,18.08
2023-03-10T19:08:36.875Z,17.25
2023-03-10T19:11:03.377Z,28.55
2023-03-10T19:13:29.860Z,27.15
2023-03-10T19:15:56.634Z,34.55
2023-03-10T19:18:23.269Z,29.52
2023-03-10T19:20:50.813Z,28.75
2023-03-10T19:23:17.238Z,28.70
2023-03-10T19:25:43.559Z,25.60
2023-03-10T19:28:09.925Z,29.30
2023-03-10T19:30:36.472Z,28.98
2023-03-10T19:33:02.988Z,31.58
2023-03-10T19:35:29.521Z,33.20
2023-03-10T19:37:55.846Z,29.23
2023-03-10T19:40:23.564Z,23.35
2023-03-10T19:42:50.032Z,22.63
2023-03-10T19:45:17.279Z,18.55
2023-03-10T19:47:44.108Z,18.35
2023-03-10T19:50:11.931Z,17.58
2023-03-10T19:52:42.634Z,16.20
2023-03-10T19:55:10.661Z,16.50
2023-03-10T20:00:07.314Z,19.42
2023-03-10T20:02:33.691Z,19.02
2023-03-10T20:04:59.994Z,16.88
2023-03-10T20:07:26.311Z,16.23
2023-03-10T20:09:52.637Z,17.08
2023-03-10T20:12:19.003Z,27.98
2023-03-10T20:14:45.342Z,20.73
2023-03-10T20:17:11.768Z,23.83
2023-03-10T20:19:39.895Z,24.75
2023-03-10T20:22:06.252Z,23.70
2023-03-10T20:24:32.834Z,22.70
2023-03-10T20:27:00.158Z,21.10
2023-03-10T20:29:26.580Z,21.27
2023-03-10T20:31:53.021Z,16.88
2023-03-10T20:34:21.947Z,16.83
2023-03-10T20:36:48.590Z,19.90
2023-03-10T20:39:14.936Z,20.60
2023-03-10T20:41:42.756Z,16.50
2023-03-10T20:44:14.077Z,19.83
2023-03-10T20:46:44.164Z,21.58
2023-03-10T20:49:11.230Z,22.75
2023-03-10T20:51:38.284Z,20.63
2023-03-10T20:54:04.714Z,17.67
2023-03-10T20:56:31.633Z,19.45
2023-03-10T20:58:59.837Z,17.30
2023-03-10T21:01:26.425Z,19.17
2023-03-10T21:03:54.694Z,19.73
2023-03-10T21:06:22.339Z,19.48
2023-03-10T21:08:48.752Z,20.75
2023-03-10T21:11:15.848Z,18.45
2023-03-10T21:13:43.122Z,19.00
2023-03-10T21:16:10.399Z,18.17
2023-03-10T21:18:36.835Z,20.17
2023-03-10T21:21:09.781Z,20.60
2023-03-10T21:23:36.813Z,18.95
2023-03-10T21:26:08.970Z,20.27
2023-03-10T21:28:35.482Z,18.55
2023-03-10T21:31:01.950Z,23.23
2023-03-10T21:33:28.550Z,21.45
2023-03-10T21:35:55.220Z,20.73
2023-03-10T21:38:21.555Z,21.50
2023-03-10T21:40:48.266Z,22.38
2023-03-10T21:43:14.923Z,22.52
2023-03-10T21:45:41.394Z,25.17
2023-03-10T21:48:08.346Z,26.95
2023-03-10T21:50:34.747Z,28.40
2023-03-10T21:53:01.203Z,32.08
2023-03-10T21:55:29.557Z,34.97
2023-03-10T21:57:56.011Z,33.83
2023-03-10T22:00:24.273Z,36.25
2023-03-10T22:02:51.606Z,29.20
2023-03-10T22:05:18.610Z,31.92
2023-03-10T22:07:45.251Z,30.17
2023-03-10T22:10:12.296Z,33.22
2023-03-10T22:12:39.032Z,31.00
2023-03-10T22:15:06.394Z,28.98
2023-03-10T22:17:32.852Z,30.50
2023-03-10T22:19:59.657Z,27.55
2023-03-10T22:22:26.061Z,31.90
2023-03-10T22:24:53.693Z,32.05
2023-03-10T22:27:20.053Z,30.10
2023-03-10T22:29:46.468Z,28.92
2023-03-10T22:32:12.923Z,28.95
2023-03-10T22:34:39.396Z,27.88
2023-03-10T22:37:05.776Z,25.90
2023-03-10T22:39:32.096Z,26.95
2023-03-10T22:41:58.432Z,28.90
2023-03-10T22:44:24.844Z,26.00
2023-03-10T22:46:51.287Z,28.40
2023-03-10T22:49:18.704Z,36.03
2023-03-10T22:51:45.067Z,43.38
2023-03-10T22:54:11.415Z,38.78
2023-03-10T22:56:37.817Z,29.67
2023-03-10T22:59:05.855Z,27.38
2023-03-10T23:03:59.201Z,237.60
2023-03-10T23:06:29.093Z,161.63
2023-03-10T23:08:56.189Z,171.32
2023-03-10T23:11:22.660Z,111.07
2023-03-10T23:13:48.991Z,68.55
2023-03-10T23:16:18.016Z,38.58
2023-03-10T23:18:44.553Z,36.53
2023-03-10T23:21:11.262Z,33.40
2023-03-10T23:23:39.230Z,37.67
2023-03-10T23:28:32.060Z,26.67
2023-03-10T23:31:00.381Z,27.25
2023-03-10T23:33:26.962Z,27.13
2023-03-10T23:35:56.145Z,29.70
2023-03-10T23:38:24.062Z,33.67
2023-03-10T23:40:50.911Z,29.95
2023-03-10T23:43:17.631Z,30.73
2023-03-10T23:45:44.417Z,30.38
2023-03-10T23:48:13.761Z,26.63
2023-03-10T23:50:41.916Z,26.65
2023-03-10T23:53:09.232Z,30.35
2023-03-10T23:55:37.163Z,27.50
2023-03-10T23:58:04.341Z,29.35
